^^
Datos históricos de la estación: Murcia-Puente Tocinos
Diario Informe para Diciembre 1, 2019 Unidades:  Ingés    Métrico   Ambas
Diario Semanal Mensual Anual
  Máxima: Mínima: Promedio:
Temperatura: 68 °F 48.4 °F 57.2 °F
Punto de rocio: 53.4 °F 45 °F 49.1 °F
Humedad: 91% 47.6% 77%
Velocidad viento: 10mph 1.4mph 4mph
Racha viento: 16.3mph - -
Viento- - SSE
Presión: 29.9 in 29.8 in -
Precipitación: 0 in    
 
 
Tabla de datos para Diciembre 1, 2019
Hora Temperatura Punto de rocio Presión Viento Velocidad viento Racha viento Humedad Intensidad lluvia(por hora) Nubes
00:04 55.9 °F 51.6 °F 29.9 in OSO 2.5 mph 5.2 mph 85.6% 0 in
00:09 55.8 °F 51.6 °F 29.9 in SO 2.4 mph 5 mph 86% 0 in
00:14 55.8 °F 51.8 °F 29.9 in SO 2.9 mph 5.2 mph 86.6% 0 in
00:19 55.8 °F 52 °F 29.9 in SSO 3.1 mph 5 mph 87% 0 in
00:24 55.8 °F 51.8 °F 29.9 in Sur 3.1 mph 5.9 mph 86.9% 0 in
00:29 55.6 °F 51.4 °F 29.9 in SSE 3.1 mph 6.2 mph 86% 0 in
00:34 55.2 °F 51.1 °F 29.9 in SSE 3.5 mph 6.9 mph 86% 0 in
00:39 54.9 °F 50.7 °F 29.9 in Sur 3.6 mph 7 mph 86% 0 in
00:44 54.5 °F 50.4 °F 29.9 in Sur 4.3 mph 7.4 mph 86% 0 in
00:49 54.1 °F 50.4 °F 29.9 in Sur 4.7 mph 7.4 mph 87% 0 in
00:54 54 °F 50.4 °F 29.9 in SSE 4.4 mph 7 mph 87.3% 0 in
00:59 54 °F 50.5 °F 29.9 in Sur 4.3 mph 8.1 mph 88% 0 in
01:04 54 °F 50.5 °F 29.9 in Sur 4.6 mph 8.1 mph 88% 0 in
01:09 54 °F 50.5 °F 29.9 in Sur 4.7 mph 8.1 mph 88% 0 in
01:14 54 °F 50.5 °F 29.9 in SSO 3.9 mph 8 mph 88% 0 in
01:19 54 °F 50.5 °F 29.9 in SSO 3.6 mph 6.2 mph 88% 0 in
01:24 54 °F 50.5 °F 29.9 in SSO 3.6 mph 6 mph 88% 0 in
01:29 54 °F 50.5 °F 29.9 in SSO 3.6 mph 8.1 mph 88% 0 in
01:34 54 °F 50.5 °F 29.9 in SSO 3.9 mph 8 mph 88% 0 in
01:39 54 °F 50.4 °F 29.9 in SSO 4 mph 6 mph 87.7% 0 in
01:44 54 °F 50.2 °F 29.9 in SO 3.4 mph 6.9 mph 87% 0 in
01:49 54.1 °F 50.4 °F 29.9 in SSO 3.1 mph 7 mph 87% 0 in
01:54 54.1 °F 50.4 °F 29.9 in SO 4 mph 7.4 mph 87% 0 in
01:59 54.3 °F 50.5 °F 29.9 in SO 4.3 mph 8.1 mph 87% 0 in
02:04 54.3 °F 50.7 °F 29.9 in SSO 4.3 mph 8.1 mph 87.5% 0 in
02:09 54.3 °F 50.5 °F 29.9 in Sur 4.3 mph 6 mph 87% 0 in
02:14 54.3 °F 50.5 °F 29.9 in SO 3.4 mph 6 mph 87% 0 in
02:19 54.1 °F 50.5 °F 29.9 in SO 2.9 mph 5 mph 87% 0 in
02:24 54.1 °F 50.4 °F 29.9 in SSO 2.2 mph 5 mph 87% 0 in
02:29 54 °F 50.2 °F 29.9 in SSO 2 mph 3.6 mph 87% 0 in
02:34 54 °F 50 °F 29.9 in OSO 1.9 mph 4 mph 87% 0 in
02:39 53.6 °F 50.2 °F 29.9 in OSO 1.8 mph 4.6 mph 87.9% 0 in
02:44 53.4 °F 50 °F 29.9 in SO 1.9 mph 5 mph 88% 0 in
02:49 53.2 °F 49.8 °F 29.9 in OSO 2 mph 4.6 mph 88% 0 in
02:54 53.1 °F 49.6 °F 29.9 in Oeste 2 mph 5 mph 88% 0 in
02:59 52.9 °F 49.3 °F 29.9 in NNO 2 mph 5 mph 88% 0 in
03:04 52.3 °F 49.1 °F 29.9 in NO 2.3 mph 5 mph 88.3% 0 in
03:09 52.3 °F 49.1 °F 29.9 in NO 2.4 mph 4 mph 89% 0 in
03:14 52.2 °F 48.9 °F 29.9 in NO 1.7 mph 2.4 mph 89% 0 in
03:19 52 °F 48.7 °F 29.9 in NNO 1.4 mph 8.1 mph 88.6% 0 in
03:24 51.3 °F 48 °F 29.9 in SE 2.6 mph 9.2 mph 88.5% 0 in
03:29 50.7 °F 47.8 °F 29.9 in SSE 3.1 mph 9.2 mph 89.6% 0 in
03:34 50.5 °F 47.8 °F 29.9 in SSE 4.7 mph 9 mph 90.3% 0 in
03:39 50.5 °F 48 °F 29.9 in SSE 5.4 mph 7 mph 91% 0 in
03:44 50.5 °F 48 °F 29.9 in SSE 4.6 mph 8.1 mph 91% 0 in
03:49 50.5 °F 48 °F 29.9 in SSE 4.3 mph 8.5 mph 91% 0 in
03:54 50.5 °F 48 °F 29.9 in SSE 5.1 mph 9 mph 91% 0 in
03:59 50.5 °F 48 °F 29.9 in SSE 5.4 mph 8.1 mph 91% 0 in
04:04 50.5 °F 48 °F 29.9 in SSO 4.6 mph 8.1 mph 91% 0 in
04:09 50.7 °F 48.2 °F 29.9 in SO 4.3 mph 8 mph 91% 0 in
04:14 51.1 °F 48.6 °F 29.9 in SO 3.8 mph 5.8 mph 91% 0 in
04:19 51.4 °F 48.7 °F 29.9 in Oeste 3.6 mph 6 mph 90.8% 0 in
04:24 51.4 °F 48.6 °F 29.9 in ONO 3.6 mph 6 mph 90% 0 in
04:29 51.3 °F 48.6 °F 29.9 in Oeste 3.6 mph 5 mph 90% 0 in
04:34 51.3 °F 48.2 °F 29.9 in Oeste 2.7 mph 5 mph 89.4% 0 in
04:39 51.3 °F 48.2 °F 29.9 in Oeste 2.4 mph 4.7 mph 89.5% 0 in
04:44 51.1 °F 48 °F 29.9 in Oeste 2.7 mph 6.4 mph 89% 0 in
04:49 51.1 °F 48.2 °F 29.9 in SO 2.9 mph 7.4 mph 90% 0 in
04:54 51.3 °F 48.4 °F 29.9 in SSO 4.2 mph 7 mph 89.9% 0 in
04:59 51.4 °F 48.4 °F 29.9 in SSE 4.7 mph 6 mph 89% 0 in
05:04 51.8 °F 48.6 °F 29.9 in SSE 3.5 mph 5 mph 88.7% 0 in
05:09 51.8 °F 48.4 °F 29.9 in SSO 3.1 mph 4.6 mph 88% 0 in
05:14 51.6 °F 48.2 °F 29.9 in Sur 2.3 mph 5 mph 88% 0 in
05:19 51.6 °F 47.8 °F 29.9 in SE 2 mph 5.2 mph 87% 0 in
05:24 51.1 °F 47.1 °F 29.9 in SE 2.3 mph 6.2 mph 86.2% 0 in
05:29 50.2 °F 46.2 °F 29.9 in SSE 2.4 mph 8.1 mph 86.5% 0 in
05:34 49.6 °F 46.2 °F 29.9 in SSE 4 mph 8 mph 88% 0 in
05:39 49.5 °F 46.4 °F 29.9 in SE 4.7 mph 7 mph 89% 0 in
05:44 49.5 °F 46.6 °F 29.9 in SE 4.4 mph 8.1 mph 89.8% 0 in
05:49 49.3 °F 46.6 °F 29.9 in SSE 4.3 mph 8.1 mph 90% 0 in
05:54 49.3 °F 46.6 °F 29.9 in SSO 5 mph 8 mph 90% 0 in
05:59 49.5 °F 46.6 °F 29.9 in SSO 5.2 mph 6 mph 90% 0 in
06:04 49.6 °F 46.9 °F 29.9 in SO 4 mph 6.9 mph 90% 0 in
06:09 50 °F 46.9 °F 29.9 in OSO 3.6 mph 7 mph 89.3% 0 in
06:14 50.2 °F 46.9 °F 29.9 in OSO 3.9 mph 6 mph 89% 0 in
06:19 50.4 °F 47.1 °F 29.9 in SO 4 mph 6 mph 89% 0 in
06:24 50.5 °F 47.3 °F 29.9 in SO 3.4 mph 5 mph 88.7% 0 in
06:29 50.5 °F 47.1 °F 29.9 in OSO 3.1 mph 5 mph 88% 0 in
06:34 50.5 °F 46.9 °F 29.9 in OSO 3 mph 5.8 mph 87.3% 0 in
06:39 50.5 °F 46.8 °F 29.9 in SO 2.9 mph 6.9 mph 87% 0 in
06:44 50.5 °F 46.8 °F 29.9 in OSO 3 mph 7 mph 87% 0 in
06:49 50.5 °F 46.8 °F 29.9 in OSO 3.1 mph 5 mph 87% 0 in
06:54 50.4 °F 46.6 °F 29.9 in OSO 1.9 mph 2.3 mph 86.7% 0 in
06:59 50.4 °F 46.6 °F 29.9 in SE 1.4 mph 4.6 mph 86.9% 0 in
07:04 50.2 °F 46.2 °F 29.9 in SE 1.7 mph 5.9 mph 86% 0 in
07:09 49.8 °F 45.7 °F 29.9 in SE 1.8 mph 6 mph 86% 0 in
07:14 49.6 °F 45.7 °F 29.9 in Sur 2.6 mph 5 mph 86.5% 0 in
07:19 49.5 °F 45.9 °F 29.9 in SE 2.9 mph 5 mph 87% 0 in
07:24 49.3 °F 45.7 °F 29.9 in SE 2.5 mph 5 mph 87% 0 in
07:29 49.3 °F 45.9 °F 29.9 in SE 2.4 mph 4.6 mph 87.7% 0 in
07:34 49.1 °F 45.5 °F 29.9 in NO 2.1 mph 5 mph 87.1% 0 in
07:39 48.9 °F 45.5 °F 29.9 in NO 2 mph 3.6 mph 88% 0 in
07:44 48.7 °F 45.3 °F 29.9 in NO 1.9 mph 4 mph 88% 0 in
07:49 48.7 °F 45.3 °F 29.9 in NO 1.8 mph 4 mph 88% 0 in
07:54 48.7 °F 45.5 °F 29.9 in NO 1.8 mph 2.9 mph 88.5% 0 in
07:59 48.7 °F 45.7 °F 29.9 in NO 1.8 mph 5.8 mph 89% 0 in
08:04 48.7 °F 45.3 °F 29.9 in ESE 1.9 mph 6 mph 88% 0 in
08:09 48.6 °F 45.1 °F 29.9 in SE 2 mph 8.1 mph 88% 0 in
08:14 48.4 °F 45 °F 29.9 in SE 3.9 mph 8.1 mph 88% 0 in
08:19 48.4 °F 45 °F 29.9 in SSE 4.7 mph 8 mph 88% 0 in
08:24 48.4 °F 45 °F 29.9 in SSE 4.7 mph 8.1 mph 88% 0 in
08:29 48.4 °F 45 °F 29.9 in SO 4.7 mph 8 mph 88.2% 0 in
08:34 48.6 °F 45.1 °F 29.9 in SO 4.4 mph 6 mph 88.1% 0 in
08:39 48.7 °F 45.3 °F 29.9 in SSO 4.3 mph 6 mph 88% 0 in
08:44 49.3 °F 45.9 °F 29.9 in SSO 4.1 mph 6.9 mph 88% 0 in
08:49 49.6 °F 46 °F 29.9 in Sur 4 mph 7 mph 87.1% 0 in
08:54 50.2 °F 46.2 °F 29.9 in SSE 4.5 mph 8.1 mph 86.3% 0 in
08:59 50.5 °F 46.2 °F 29.9 in SSE 4.7 mph 8 mph 85.2% 0 in
09:04 50.5 °F 46.2 °F 29.9 in SSE 5.2 mph 8.5 mph 85% 0 in
09:09 50.5 °F 46.2 °F 29.9 in SSE 5.4 mph 9 mph 85% 0 in
09:14 50.5 °F 46.2 °F 29.9 in Sur 5.3 mph 8 mph 85% 0 in
09:19 50.7 °F 46.4 °F 29.9 in Sur 5.2 mph 8.1 mph 84.7% 0 in
09:24 51.3 °F 46.6 °F 29.9 in SSO 4.8 mph 8 mph 84% 0 in
09:29 51.6 °F 46.9 °F 29.9 in SSO 4.7 mph 8.5 mph 83.8% 0 in
09:34 52.2 °F 47.1 °F 29.9 in SSO 5.2 mph 9 mph 82.9% 0 in
09:39 52.5 °F 47.3 °F 29.9 in SSO 5.4 mph 8 mph 82% 0 in
09:44 53.1 °F 47.5 °F 29.9 in SO 4.9 mph 7 mph 81.3% 0 in
09:49 53.2 °F 47.3 °F 29.9 in SO 4.7 mph 7.4 mph 80% 0 in
09:54 53.4 °F 47.5 °F 29.9 in SO 4.7 mph 7 mph 80% 0 in
09:59 53.6 °F 47.5 °F 29.9 in SSE 4.7 mph 7.4 mph 79.4% 0 in
10:04 54.1 °F 47.5 °F 29.9 in SSO 4.4 mph 7 mph 78.3% 0 in
10:09 54.7 °F 47.8 °F 29.9 in SSO 4.3 mph 6.9 mph 77.6% 0 in
10:14 55 °F 48 °F 29.9 in Oeste 3.8 mph 7 mph 77% 0 in
10:19 55.4 °F 48 °F 29.9 in Oeste 3.6 mph 3.5 mph 76.4% 0 in
10:24 55.8 °F 48 °F 29.9 in SSO 2.4 mph 4.6 mph 75.2% 0 in
10:29 55.8 °F 47.7 °F 29.9 in Sur 2 mph 5.8 mph 74.2% 0 in
10:34 55.9 °F 47.8 °F 29.9 in SSO 2.8 mph 6 mph 74.1% 0 in
10:39 56.1 °F 48 °F 29.9 in Sur 3.1 mph 6 mph 73.9% 0 in
10:44 56.7 °F 47.8 °F 29.9 in Oeste 3 mph 5.2 mph 72.2% 0 in
10:49 56.7 °F 48.2 °F 29.9 in Oeste 2.9 mph 5.8 mph 73% 0 in
10:54 56.8 °F 48.4 °F 29.9 in Oeste 3 mph 6 mph 73% 0 in
10:59 57 °F 48.2 °F 29.9 in SO 3.1 mph 5.2 mph 72.4% 0 in
11:04 57.4 °F 48.4 °F 29.9 in SO 3.1 mph 5 mph 72% 0 in
11:09 57.7 °F 48.6 °F 29.9 in SSO 3.1 mph 5 mph 71.4% 0 in
11:14 58.5 °F 48.7 °F 29.9 in Sur 3 mph 5 mph 70.2% 0 in
11:19 59 °F 48.7 °F 29.9 in Sur 2.9 mph 5 mph 68.8% 0 in
11:24 59.5 °F 48.9 °F 29.9 in SSO 2.9 mph 5 mph 67.6% 0 in
11:29 60.3 °F 48.6 °F 29.9 in SO 2.9 mph 5.8 mph 65.4% 0 in
11:34 60.4 °F 48.4 °F 29.9 in SSO 3 mph 6 mph 64.1% 0 in
11:39 61.2 °F 48.4 °F 29.9 in SO 3.1 mph 6.9 mph 63% 0 in
11:44 61.3 °F 48.4 °F 29.9 in SO 3.5 mph 9.2 mph 62.4% 0 in
11:49 61.5 °F 48.4 °F 29.9 in SSO 3.6 mph 9 mph 62% 0 in
11:54 61.5 °F 48.4 °F 29.9 in Sur 4.3 mph 9.2 mph 62% 0 in
11:59 61.9 °F 48.7 °F 29.9 in SO 4.7 mph 9 mph 62% 0 in
12:04 62.1 °F 48.9 °F 29.9 in SSO 4.7 mph 8.1 mph 62% 0 in
12:09 62.4 °F 48.9 °F 29.9 in SSE 4.7 mph 8.1 mph 61.1% 0 in
12:14 63 °F 49.1 °F 29.9 in SSO 4.7 mph 8.1 mph 60.8% 0 in
12:19 63 °F 48.9 °F 29.9 in Oeste 4.7 mph 8.5 mph 60% 0 in
12:24 63.1 °F 48.9 °F 29.9 in OSO 4.7 mph 9 mph 60% 0 in
12:29 63.3 °F 48.9 °F 29.9 in SO 4.7 mph 6.9 mph 59.3% 0 in
12:34 63.7 °F 48.9 °F 29.9 in SO 3.5 mph 7 mph 58.5% 0 in
12:39 64 °F 48.9 °F 29.9 in Oeste 3.1 mph 6 mph 58% 0 in
12:44 64.6 °F 48.9 °F 29.8 in ONO 2.2 mph 6.9 mph 56.7% 0 in
12:49 64.8 °F 48.7 °F 29.8 in North 1.8 mph 10.2 mph 56% 0 in
12:54 65.1 °F 48.6 °F 29.8 in ONO 3.6 mph 11.2 mph 55% 0 in
12:59 65.3 °F 48.4 °F 29.8 in ONO 4.3 mph 11 mph 54.4% 0 in
13:04 65.1 °F 48.2 °F 29.8 in NO 5.1 mph 9.7 mph 54% 0 in
13:09 65.3 °F 48.2 °F 29.8 in ONO 5.4 mph 11.8 mph 54% 0 in
13:14 65.3 °F 48.2 °F 29.8 in Oeste 5.3 mph 12 mph 54% 0 in
13:19 65.7 °F 48.4 °F 29.8 in NO 5.2 mph 10.4 mph 53.7% 0 in
13:24 65.8 °F 48.2 °F 29.8 in NO 4.5 mph 10.4 mph 53.3% 0 in
13:29 65.8 °F 48 °F 29.8 in ONO 4.3 mph 10.4 mph 52.7% 0 in
13:34 65.8 °F 48.2 °F 29.8 in NO 4.3 mph 9 mph 53% 0 in
13:39 66 °F 48 °F 29.8 in NNO 4.3 mph 8.1 mph 52.3% 0 in
13:44 66.2 °F 48 °F 29.8 in Oeste 3.4 mph 10.2 mph 51.9% 0 in
13:49 66 °F 47.7 °F 29.8 in Oeste 3.1 mph 10.7 mph 51.4% 0 in
13:54 66.2 °F 47.8 °F 29.8 in NO 4.6 mph 11 mph 51.7% 0 in
13:59 66.4 °F 47.7 °F 29.8 in NNO 5.2 mph 9.2 mph 51% 0 in
14:04 66.4 °F 47.7 °F 29.8 in NNO 4.5 mph 9 mph 51% 0 in
14:09 66.7 °F 47.7 °F 29.8 in NO 4.3 mph 6.9 mph 50.5% 0 in
14:14 66.7 °F 47.5 °F 29.8 in NNO 3.3 mph 8.1 mph 50% 0 in
14:19 66.7 °F 47.5 °F 29.8 in NO 2.9 mph 9.7 mph 49.9% 0 in
14:24 66.7 °F 47.5 °F 29.8 in ENE 3.9 mph 10 mph 50% 0 in
14:29 66.9 °F 47.5 °F 29.8 in NE 4.3 mph 5.4 mph 49.5% 0 in
14:34 66.9 °F 47.3 °F 29.8 in North 3.3 mph 9.7 mph 49.4% 0 in
14:39 66.9 °F 47.1 °F 29.8 in NO 2.9 mph 10 mph 49% 0 in
14:44 67.1 °F 47.3 °F 29.8 in Oeste 2.9 mph 9.2 mph 49% 0 in
14:49 67.1 °F 47.3 °F 29.8 in ONO 2.9 mph 9 mph 48.8% 0 in
14:54 67.3 °F 46.9 °F 29.8 in NO 3.7 mph 8 mph 48% 0 in
14:59 67.5 °F 47.1 °F 29.8 in SO 4 mph 5.9 mph 48% 0 in
15:04 67.6 °F 47.1 °F 29.8 in OSO 3.2 mph 6 mph 48% 0 in
15:09 67.8 °F 47.3 °F 29.8 in NE 2.9 mph 5.9 mph 47.6% 0 in
15:14 67.8 °F 47.7 °F 29.8 in North 2.5 mph 6.2 mph 48.4% 0 in
15:19 67.8 °F 47.8 °F 29.8 in NE 2.4 mph 6.9 mph 48.7% 0 in
15:24 67.6 °F 47.3 °F 29.8 in ENE 3.2 mph 7 mph 48% 0 in
15:29 67.6 °F 47.3 °F 29.8 in SSE 3.6 mph 6 mph 48% 0 in
15:34 68 °F 47.5 °F 29.8 in SSE 2.4 mph 4.7 mph 47.8% 0 in
15:39 68 °F 47.5 °F 29.8 in NE 2 mph 5.2 mph 47.7% 0 in
15:44 67.8 °F 47.5 °F 29.8 in NNO 2.8 mph 5.2 mph 48% 0 in
15:49 67.8 °F 47.5 °F 29.8 in NNE 3.1 mph 5.2 mph 48% 0 in
15:54 67.8 °F 47.8 °F 29.8 in Este 2.6 mph 5.4 mph 48.7% 0 in
15:59 67.8 °F 48.2 °F 29.8 in Este 2.4 mph 8.5 mph 49.4% 0 in
16:04 67.8 °F 48.2 °F 29.8 in Este 3.3 mph 9.2 mph 49.5% 0 in
16:09 67.5 °F 48.2 °F 29.8 in Este 3.6 mph 9 mph 49.9% 0 in
16:14 67.3 °F 48 °F 29.8 in ENE 4.8 mph 8 mph 50% 0 in
16:19 67.3 °F 47.8 °F 29.8 in ENE 5.2 mph 6.2 mph 49.8% 0 in
16:24 67.3 °F 47.7 °F 29.8 in Este 3.7 mph 6 mph 49.3% 0 in
16:29 67.5 °F 47.8 °F 29.8 in ENE 3.1 mph 5.2 mph 49.5% 0 in
16:34 67.5 °F 47.8 °F 29.8 in ENE 2.3 mph 5 mph 49.5% 0 in
16:39 67.3 °F 48 °F 29.8 in NE 2 mph 5.2 mph 50% 0 in
16:44 67.1 °F 47.8 °F 29.8 in NNE 2.7 mph 5.8 mph 50% 0 in
16:49 66.9 °F 47.7 °F 29.8 in NNE 2.9 mph 6 mph 50% 0 in
16:54 66.7 °F 47.7 °F 29.8 in NE 3 mph 5.2 mph 50% 0 in
16:59 66.7 °F 47.7 °F 29.8 in NE 3.1 mph 5 mph 50.4% 0 in
17:04 66.7 °F 48 °F 29.8 in NE 3.1 mph 7.4 mph 51.1% 0 in
17:09 66.6 °F 48.4 °F 29.8 in Este 3.1 mph 7 mph 52.1% 0 in
17:14 66.6 °F 49.3 °F 29.8 in SE 3.5 mph 7 mph 53.8% 0 in
17:19 66.2 °F 49.6 °F 29.8 in SE 3.6 mph 7 mph 55.3% 0 in
17:24 65.8 °F 50.4 °F 29.8 in ESE 3.2 mph 7.4 mph 57.2% 0 in
17:29 65.3 °F 50.5 °F 29.8 in ESE 3.1 mph 7 mph 58.7% 0 in
17:34 64.9 °F 50.5 °F 29.8 in ESE 3.7 mph 6.2 mph 59.8% 0 in
17:39 64.8 °F 50.7 °F 29.8 in ESE 4 mph 6 mph 60.7% 0 in
17:44 64.4 °F 50.7 °F 29.8 in Este 3.7 mph 7.4 mph 61.1% 0 in
17:49 64 °F 50.7 °F 29.8 in ENE 3.6 mph 7 mph 62% 0 in
17:54 63.7 °F 50.7 °F 29.8 in Este 3.9 mph 7 mph 62.9% 0 in
17:59 63.5 °F 50.7 °F 29.8 in ESE 4 mph 6.9 mph 63% 0 in
18:04 63.3 °F 50.5 °F 29.8 in ESE 4 mph 9.2 mph 63% 0 in
18:09 63 °F 50.4 °F 29.8 in ESE 4 mph 11.4 mph 63.6% 0 in
18:14 62.6 °F 50.4 °F 29.8 in ESE 5.8 mph 12 mph 64.3% 0 in
18:19 62.2 °F 50.2 °F 29.8 in ESE 6.4 mph 9.2 mph 65% 0 in
18:24 62.1 °F 50.2 °F 29.8 in ESE 6 mph 8 mph 65% 0 in
18:29 61.9 °F 50 °F 29.8 in ESE 4.7 mph 7 mph 65% 0 in
18:34 61.5 °F 49.8 °F 29.8 in ENE 4.7 mph 7 mph 65.2% 0 in
18:39 61.3 °F 50 °F 29.8 in NNE 4.7 mph 9.2 mph 66.4% 0 in
18:44 61 °F 50 °F 29.8 in NNE 5.2 mph 10.4 mph 67.4% 0 in
18:49 60.8 °F 50.4 °F 29.8 in NNE 5.4 mph 10.2 mph 68.4% 0 in
18:54 60.3 °F 51.1 °F 29.8 in NNE 5.4 mph 12.7 mph 71.6% 0 in
18:59 59.5 °F 51.8 °F 29.8 in NNE 5.4 mph 13 mph 75.6% 0 in
19:04 59 °F 52.3 °F 29.8 in NE 7.1 mph 13 mph 78.8% 0 in
19:09 58.6 °F 52.7 °F 29.8 in NE 7.6 mph 16.1 mph 80.9% 0 in
19:14 58.3 °F 53.1 °F 29.8 in NE 8 mph 16 mph 82.5% 0 in
19:19 58.1 °F 53.1 °F 29.8 in NE 8.1 mph 15.2 mph 83.6% 0 in
19:24 57.9 °F 53.2 °F 29.8 in NE 8.4 mph 16.1 mph 84.5% 0 in
19:29 57.7 °F 53.2 °F 29.8 in NE 8.5 mph 16.3 mph 85% 0 in
19:34 57.6 °F 53.4 °F 29.8 in NE 9.6 mph 16 mph 85.9% 0 in
19:39 57.4 °F 53.2 °F 29.8 in NE 10 mph 13 mph 86% 0 in
19:44 57 °F 52.9 °F 29.8 in NE 7.8 mph 12 mph 86% 0 in
19:49 56.8 °F 52.9 °F 29.8 in NE 6.9 mph 11 mph 86.5% 0 in
19:54 56.8 °F 53.1 °F 29.8 in NNE 6.5 mph 10 mph 87% 0 in
19:59 56.7 °F 52.9 °F 29.8 in NE 6.4 mph 10.4 mph 87% 0 in
20:04 56.7 °F 52.9 °F 29.8 in NE 6.3 mph 10 mph 87.6% 0 in
20:09 56.5 °F 53.1 °F 29.8 in NE 6.2 mph 10 mph 88% 0 in
20:14 56.5 °F 53.1 °F 29.8 in NE 6.2 mph 10.4 mph 88% 0 in
20:19 56.5 °F 53.1 °F 29.8 in NE 6.2 mph 10.4 mph 88% 0 in
20:24 56.5 °F 53.1 °F 29.8 in NNE 6.2 mph 10 mph 88% 0 in
20:29 56.5 °F 53.1 °F 29.8 in NNE 6.2 mph 10 mph 88% 0 in
20:34 56.5 °F 53.1 °F 29.8 in NNE 5.6 mph 10 mph 88% 0 in
20:39 56.5 °F 53.2 °F 29.8 in NE 5.4 mph 10.7 mph 88.6% 0 in
20:44 56.5 °F 53.2 °F 29.8 in NE 6.1 mph 11 mph 89% 0 in
20:49 56.7 °F 53.4 °F 29.8 in NE 6.4 mph 10.4 mph 89% 0 in
20:54 56.7 °F 53.2 °F 29.8 in NE 6.4 mph 10.2 mph 88.4% 0 in
20:59 56.7 °F 53.1 °F 29.8 in NE 6.4 mph 10.4 mph 88% 0 in
21:04 56.7 °F 53.1 °F 29.8 in NE 6.3 mph 10 mph 88% 0 in
21:09 56.7 °F 53.1 °F 29.8 in NE 6.2 mph 10 mph 88% 0 in
21:14 56.7 °F 53.1 °F 29.8 in NE 6 mph 9 mph 88% 0 in
21:19 56.7 °F 53.2 °F 29.8 in NE 5.9 mph 9.2 mph 88.5% 0 in
21:24 56.5 °F 53.2 °F 29.8 in NE 5.5 mph 9 mph 89% 0 in
21:29 56.3 °F 53.1 °F 29.8 in NE 5.4 mph 8.1 mph 89% 0 in
21:34 56.3 °F 53.1 °F 29.8 in NE 5.4 mph 8 mph 89% 0 in
21:39 56.3 °F 53.1 °F 29.8 in NE 5.4 mph 7 mph 89% 0 in
21:44 56.1 °F 53.1 °F 29.8 in NE 4.9 mph 7 mph 89.5% 0 in
21:49 56.1 °F 53.2 °F 29.8 in NE 4.7 mph 7 mph 90% 0 in
21:54 56.1 °F 53.1 °F 29.8 in NNE 4.2 mph 5 mph 89.7% 0 in
21:59 56.1 °F 53.1 °F 29.8 in NNE 4 mph 5 mph 89.5% 0 in
22:04 56.1 °F 53.2 °F 29.8 in NNE 2.8 mph 4 mph 90% 0 in
22:09 56.1 °F 53.2 °F 29.8 in NNE 2.4 mph 4.6 mph 90% 0 in
22:14 56.1 °F 53.2 °F 29.8 in NNE 2 mph 5.2 mph 90% 0 in
22:19 56.1 °F 53.2 °F 29.8 in Este 1.8 mph 5.2 mph 90% 0 in
22:24 56.1 °F 53.2 °F 29.8 in ESE 2.7 mph 5.2 mph 89.7% 0 in
22:29 56.3 °F 53.1 °F 29.8 in Este 3.1 mph 5 mph 89% 0 in
22:34 56.3 °F 52.9 °F 29.8 in ENE 3.1 mph 6.9 mph 88.2% 0 in
22:39 56.3 °F 52.7 °F 29.8 in ENE 3.1 mph 7 mph 87.4% 0 in
22:44 56.5 °F 52.5 °F 29.8 in Este 3.5 mph 7.4 mph 86.8% 0 in
22:49 56.5 °F 52.3 °F 29.8 in ENE 3.6 mph 7 mph 86% 0 in
22:54 56.5 °F 52.2 °F 29.8 in ENE 3.9 mph 6.9 mph 85.5% 0 in
22:59 56.3 °F 51.8 °F 29.8 in ENE 4 mph 7 mph 85% 0 in
23:04 56.3 °F 51.8 °F 29.8 in ENE 4 mph 6.9 mph 85% 0 in
23:09 56.1 °F 51.8 °F 29.8 in NE 4 mph 8.1 mph 85% 0 in
23:14 56.1 °F 51.6 °F 29.8 in NE 4.2 mph 8.1 mph 85% 0 in
23:19 55.9 °F 51.6 °F 29.8 in NE 4.3 mph 9.2 mph 85% 0 in
23:24 55.9 °F 51.4 °F 29.8 in NE 4.6 mph 9 mph 85% 0 in
23:29 55.8 °F 51.4 °F 29.8 in NE 4.7 mph 7 mph 85% 0 in
23:34 55.8 °F 51.3 °F 29.8 in NNE 4.2 mph 7 mph 85% 0 in
23:39 55.6 °F 51.1 °F 29.8 in NNE 4 mph 7 mph 85% 0 in
23:44 55.4 °F 51.1 °F 29.8 in NE 3.4 mph 5.9 mph 85.1% 0 in
23:49 55.2 °F 51.1 °F 29.8 in NNE 3.1 mph 8.1 mph 86% 0 in
23:54 55.2 °F 51.1 °F 29.8 in NNE 4 mph 8.5 mph 86% 0 in
23:59 55.2 °F 50.9 °F 29.8 in NE 4.3 mph 9 mph 85.4% 0 in
Murcia-Puente Tocinos, España
Compliments of Weather Underground - 3.5 mb

La estación de MeteoMurcia.com, publica sus datos en los siguientes proyectos:

Weather Underground PWS IMURCIAP2 Meteoclimatic www.awekas.at

W3Counter
Web Analytics